createdAt,value
2023-03-16T00:00:35.457Z,7.00
2023-03-16T00:03:20.865Z,7.00
2023-03-16T00:05:50.948Z,6.00
2023-03-16T00:08:22.218Z,7.00
2023-03-16T00:10:54.397Z,6.00
2023-03-16T00:13:24.649Z,5.00
2023-03-16T00:15:57.930Z,4.00
2023-03-16T00:18:29.070Z,7.00
2023-03-16T00:21:05.440Z,5.00
2023-03-16T00:23:36.335Z,6.00
2023-03-16T00:26:07.469Z,6.00
2023-03-16T00:28:36.567Z,6.00
2023-03-16T00:31:06.707Z,3.50
2023-03-16T00:33:35.680Z,5.67
2023-03-16T00:36:08.203Z,6.00
2023-03-16T00:38:39.367Z,4.00
2023-03-16T00:41:09.517Z,5.00
2023-03-16T00:43:45.171Z,4.00
2023-03-16T00:46:16.355Z,5.00
2023-03-16T00:48:47.577Z,6.00
2023-03-16T00:51:17.710Z,5.50
2023-03-16T00:53:46.931Z,5.00
2023-03-16T00:56:15.687Z,5.00
2023-03-16T00:58:44.044Z,5.00
2023-03-16T01:01:15.536Z,6.50
2023-03-16T01:03:43.881Z,6.00
2023-03-16T01:06:15.319Z,5.00
2023-03-16T01:08:44.646Z,4.50
2023-03-16T01:11:18.130Z,5.00
2023-03-16T01:13:47.839Z,5.50
2023-03-16T01:16:19.256Z,4.33
2023-03-16T01:18:48.087Z,5.00
2023-03-16T01:21:16.769Z,5.00
2023-03-16T01:23:45.465Z,4.00
2023-03-16T01:26:15.473Z,7.00
2023-03-16T01:28:44.785Z,4.00
2023-03-16T01:31:17.150Z,6.00
2023-03-16T01:33:45.540Z,3.33
2023-03-16T01:36:16.870Z,5.00
2023-03-16T01:38:46.085Z,5.67
2023-03-16T01:41:15.270Z,4.67
2023-03-16T01:43:43.956Z,5.00
2023-03-16T01:46:20.330Z,5.00
2023-03-16T01:49:08.376Z,5.33
2023-03-16T01:51:56.613Z,3.00
2023-03-16T01:54:37.891Z,5.00
2023-03-16T01:57:20.738Z,6.00
2023-03-16T02:00:19.428Z,5.50
2023-03-16T02:02:51.899Z,5.00
2023-03-16T02:05:25.045Z,5.00
2023-03-16T02:07:59.080Z,4.00
2023-03-16T02:10:29.578Z,5.50
2023-03-16T02:12:58.921Z,4.00
2023-03-16T02:15:27.747Z,4.50
2023-03-16T02:17:58.069Z,4.67
2023-03-16T02:20:37.890Z,4.00
2023-03-16T02:23:08.299Z,2.00
2023-03-16T02:26:05.558Z,4.00
2023-03-16T02:29:11.820Z,4.33
2023-03-16T02:31:41.122Z,5.00
2023-03-16T02:34:10.120Z,4.00
2023-03-16T02:36:39.831Z,6.00
2023-03-16T02:39:08.412Z,4.00
2023-03-16T02:41:37.420Z,5.00
2023-03-16T02:44:18.378Z,6.00
2023-03-16T02:46:47.177Z,4.00
2023-03-16T02:49:33.465Z,4.00
2023-03-16T02:52:01.742Z,5.00
2023-03-16T02:54:30.121Z,4.00
2023-03-16T02:56:58.506Z,5.00
2023-03-16T02:59:26.885Z,4.25
2023-03-16T03:01:55.366Z,4.00
2023-03-16T03:04:24.957Z,5.33
2023-03-16T03:06:53.255Z,4.67
2023-03-16T03:09:21.729Z,4.00
2023-03-16T03:11:50.925Z,4.00
2023-03-16T03:14:19.205Z,4.50
2023-03-16T03:16:48.044Z,4.00
2023-03-16T03:19:16.373Z,5.00
2023-03-16T03:21:45.389Z,3.00
2023-03-16T03:24:13.746Z,5.00
2023-03-16T03:26:42.126Z,4.00
2023-03-16T03:29:10.512Z,5.00
2023-03-16T03:31:38.960Z,4.00
2023-03-16T03:34:07.470Z,3.00
2023-03-16T03:36:36.080Z,4.00
2023-03-16T03:39:05.354Z,4.50
2023-03-16T03:41:34.003Z,1.00
2023-03-16T03:44:02.216Z,4.67
2023-03-16T03:46:30.679Z,4.00
2023-03-16T03:49:03.994Z,4.00
2023-03-16T03:51:33.599Z,4.00
2023-03-16T03:54:01.780Z,3.00
2023-03-16T03:56:30.169Z,5.00
2023-03-16T03:58:58.536Z,3.00
2023-03-16T04:01:26.912Z,3.50
2023-03-16T04:03:55.305Z,3.00
2023-03-16T04:06:23.672Z,3.00
2023-03-16T04:08:54.611Z,3.50
2023-03-16T04:11:23.102Z,4.00
2023-03-16T04:13:53.632Z,3.00
2023-03-16T04:16:22.510Z,4.50
2023-03-16T04:18:50.891Z,4.00
2023-03-16T04:21:19.274Z,3.00
2023-03-16T04:23:48.570Z,4.00
2023-03-16T04:26:16.947Z,4.00
2023-03-16T04:28:45.236Z,4.00
2023-03-16T04:31:14.403Z,3.00
2023-03-16T04:33:42.821Z,1.00
2023-03-16T04:36:12.369Z,3.50
2023-03-16T04:38:41.003Z,2.50
2023-03-16T04:41:11.658Z,3.00
2023-03-16T04:43:40.012Z,3.00
2023-03-16T04:46:08.463Z,3.00
2023-03-16T04:48:37.406Z,3.00
2023-03-16T04:51:06.275Z,2.00
2023-03-16T04:53:34.856Z,3.00
2023-03-16T04:56:04.366Z,3.00
2023-03-16T04:58:32.651Z,3.50
2023-03-16T05:01:01.024Z,3.50
2023-03-16T05:03:29.405Z,4.50
2023-03-16T05:05:57.859Z,2.50
2023-03-16T05:08:26.258Z,3.33
2023-03-16T05:10:59.249Z,3.50
2023-03-16T05:13:27.534Z,3.25
2023-03-16T05:15:56.297Z,2.00
2023-03-16T05:18:25.414Z,3.00
2023-03-16T05:20:56.187Z,2.00
2023-03-16T05:23:24.628Z,2.00
2023-03-16T05:25:52.801Z,3.67
2023-03-16T05:28:21.179Z,2.50
2023-03-16T05:30:49.696Z,3.50
2023-03-16T05:33:18.151Z,3.00
2023-03-16T05:35:46.549Z,4.00
2023-03-16T05:38:16.026Z,4.00
2023-03-16T05:40:44.300Z,3.75
2023-03-16T05:43:12.585Z,4.00
2023-03-16T05:45:40.881Z,3.50
2023-03-16T05:48:09.262Z,4.00
2023-03-16T05:50:37.625Z,4.00
2023-03-16T05:53:06.106Z,4.00
2023-03-16T05:55:35.011Z,4.00
2023-03-16T05:58:05.598Z,3.00
2023-03-16T06:00:34.111Z,1.00
2023-03-16T06:03:02.547Z,2.25
2023-03-16T06:05:32.425Z,2.50
2023-03-16T06:08:01.709Z,3.00
2023-03-16T06:10:30.343Z,3.00
2023-03-16T06:12:59.953Z,4.00
2023-03-16T06:15:30.856Z,2.00
2023-03-16T06:17:59.434Z,2.00
2023-03-16T06:20:28.186Z,3.00
2023-03-16T06:22:56.801Z,3.00
2023-03-16T06:25:25.073Z,3.00
2023-03-16T06:27:53.452Z,4.00
2023-03-16T06:30:22.341Z,2.00
2023-03-16T06:32:51.022Z,3.00
2023-03-16T06:35:19.718Z,4.00
2023-03-16T06:37:48.093Z,4.00
2023-03-16T06:40:16.878Z,3.33
2023-03-16T06:42:46.999Z,2.00
2023-03-16T06:45:17.664Z,3.50
2023-03-16T06:47:45.811Z,4.00
2023-03-16T06:50:14.940Z,3.00
2023-03-16T06:52:43.289Z,3.00
2023-03-16T06:55:13.098Z,2.00
2023-03-16T06:57:42.340Z,3.00
2023-03-16T07:00:14.402Z,4.00
2023-03-16T07:02:44.030Z,4.00
2023-03-16T07:05:29.963Z,4.00
2023-03-16T07:08:15.562Z,3.00
2023-03-16T07:10:43.843Z,2.00
2023-03-16T07:13:29.520Z,4.00
2023-03-16T07:15:58.406Z,3.00
2023-03-16T07:18:44.903Z,2.50
2023-03-16T07:21:32.431Z,4.00
2023-03-16T07:24:01.636Z,1.00
2023-03-16T07:26:47.624Z,3.00
2023-03-16T07:29:34.471Z,3.00
2023-03-16T07:32:20.228Z,3.00
2023-03-16T07:34:49.313Z,3.00
2023-03-16T07:37:35.411Z,1.00
2023-03-16T07:40:21.516Z,2.00
2023-03-16T07:42:50.192Z,3.00
2023-03-16T07:45:18.672Z,3.00
2023-03-16T07:48:04.870Z,1.00
2023-03-16T07:50:33.654Z,3.00
2023-03-16T07:53:02.036Z,3.00
2023-03-16T07:55:31.336Z,2.67
2023-03-16T07:57:59.617Z,2.00
2023-03-16T08:00:28.433Z,3.00
2023-03-16T08:02:57.911Z,3.00
2023-03-16T08:05:27.792Z,3.00
2023-03-16T08:07:59.069Z,0.50
2023-03-16T08:10:28.488Z,2.00
2023-03-16T08:12:57.137Z,2.00
2023-03-16T08:15:25.547Z,2.00
2023-03-16T08:17:54.444Z,1.00
2023-03-16T08:20:22.927Z,3.00
2023-03-16T08:22:51.397Z,2.00
2023-03-16T08:25:20.294Z,2.00
2023-03-16T08:27:48.912Z,3.00
2023-03-16T08:30:18.243Z,2.50
2023-03-16T08:32:46.679Z,2.00
2023-03-16T08:35:16.892Z,2.00
2023-03-16T08:37:46.613Z,3.00
2023-03-16T08:40:17.236Z,2.00
2023-03-16T08:42:46.012Z,2.25
2023-03-16T08:45:15.216Z,1.50
2023-03-16T08:47:44.324Z,1.50
2023-03-16T08:50:13.543Z,2.00
2023-03-16T08:52:43.002Z,3.00
2023-03-16T09:02:48.197Z,2.00
2023-03-16T09:05:18.516Z,2.00
2023-03-16T09:07:48.978Z,2.00
2023-03-16T09:10:19.251Z,1.00
2023-03-16T09:12:47.988Z,2.00
2023-03-16T09:15:17.063Z,1.00
2023-03-16T09:17:46.070Z,2.00
2023-03-16T09:20:26.892Z,2.25
2023-03-16T09:22:59.092Z,1.00
2023-03-16T09:25:27.996Z,2.50
2023-03-16T09:27:56.667Z,1.00
2023-03-16T09:30:25.296Z,2.00
2023-03-16T09:32:53.878Z,3.00
2023-03-16T09:35:22.627Z,1.00
2023-03-16T09:38:05.140Z,1.67
2023-03-16T09:40:34.440Z,1.25
2023-03-16T09:43:09.419Z,2.00
2023-03-16T09:46:00.072Z,2.00
2023-03-16T09:48:31.219Z,1.00
2023-03-16T09:51:01.262Z,2.00
2023-03-16T09:53:38.117Z,2.00
2023-03-16T09:56:34.657Z,1.00
2023-03-16T09:59:10.753Z,2.50
2023-03-16T10:02:06.359Z,1.00
2023-03-16T10:04:43.371Z,2.00
2023-03-16T10:07:42.001Z,2.00
2023-03-16T10:10:10.286Z,2.00
2023-03-16T10:12:42.604Z,1.00
2023-03-16T10:15:15.074Z,2.00
2023-03-16T10:18:03.369Z,2.00
2023-03-16T10:20:34.194Z,2.00
2023-03-16T10:23:15.493Z,1.67
2023-03-16T10:33:44.041Z,2.00
2023-03-16T10:36:26.241Z,2.00
2023-03-16T10:39:00.569Z,1.50
2023-03-16T10:41:34.606Z,2.00
2023-03-16T10:44:10.298Z,2.00
2023-03-16T10:46:43.193Z,1.75
2023-03-16T10:49:20.799Z,2.00
2023-03-16T10:51:49.694Z,1.67
2023-03-16T10:54:29.650Z,0.67
2023-03-16T10:56:59.662Z,2.00
2023-03-16T10:59:33.410Z,1.75
2023-03-16T11:02:04.040Z,2.00
2023-03-16T11:04:33.428Z,2.00
2023-03-16T11:07:02.004Z,2.00
2023-03-16T11:09:35.227Z,0.50
2023-03-16T11:12:25.782Z,2.00
2023-03-16T11:14:54.981Z,2.50
2023-03-16T11:17:35.645Z,1.00
2023-03-16T11:20:12.651Z,2.33
2023-03-16T11:22:45.821Z,2.00
2023-03-16T11:25:45.785Z,1.00
2023-03-16T11:28:26.221Z,1.50
2023-03-16T11:31:06.814Z,2.50
2023-03-16T11:33:35.355Z,1.00
2023-03-16T11:36:31.992Z,1.50
2023-03-16T11:39:22.498Z,1.00
2023-03-16T11:42:09.822Z,1.33
2023-03-16T11:44:43.832Z,2.00
2023-03-16T11:48:00.917Z,2.00
2023-03-16T11:50:47.353Z,2.00
2023-03-16T11:53:33.068Z,2.33
2023-03-16T11:56:13.397Z,2.00
2023-03-16T11:58:53.747Z,2.75
2023-03-16T12:01:22.689Z,2.00
2023-03-16T12:04:06.348Z,2.33
2023-03-16T12:07:01.287Z,2.00
2023-03-16T12:09:58.337Z,1.00
2023-03-16T12:12:32.445Z,1.33
2023-03-16T12:15:14.448Z,1.50
2023-03-16T12:17:44.571Z,1.00
2023-03-16T12:20:31.876Z,2.00
2023-03-16T12:23:06.358Z,2.00
2023-03-16T12:25:39.811Z,2.00
2023-03-16T12:28:17.537Z,1.00
2023-03-16T12:31:00.728Z,1.00
2023-03-16T12:34:07.005Z,1.00
2023-03-16T12:37:10.813Z,1.00
2023-03-16T12:39:51.766Z,1.75
2023-03-16T12:42:46.171Z,0.75
2023-03-16T12:45:37.456Z,1.00
2023-03-16T12:48:28.559Z,1.00
2023-03-16T12:51:00.566Z,2.00
2023-03-16T12:53:41.045Z,1.00
2023-03-16T12:56:21.731Z,1.25
2023-03-16T12:58:50.989Z,1.00
2023-03-16T13:01:21.408Z,1.00
2023-03-16T13:03:51.038Z,2.00
2023-03-16T13:06:23.724Z,1.25
2023-03-16T13:08:58.015Z,1.50
2023-03-16T13:11:28.070Z,1.00
2023-03-16T13:14:02.470Z,2.00
2023-03-16T13:16:38.611Z,2.00
2023-03-16T13:19:27.619Z,1.00
2023-03-16T13:22:06.865Z,1.33
2023-03-16T13:24:40.132Z,0.67
2023-03-16T13:27:34.570Z,2.00
2023-03-16T13:30:18.367Z,1.00
2023-03-16T13:32:48.223Z,1.00
2023-03-16T13:35:17.808Z,0.33
2023-03-16T13:37:47.488Z,1.00
2023-03-16T13:40:23.356Z,2.00
2023-03-16T13:42:53.284Z,1.00
2023-03-16T13:45:29.320Z,1.00
2023-03-16T13:48:00.550Z,1.00
2023-03-16T13:50:33.351Z,0.50
2023-03-16T13:53:05.820Z,0.75
2023-03-16T13:55:36.968Z,0.00
2023-03-16T13:58:05.552Z,1.00
2023-03-16T14:00:39.098Z,1.00
2023-03-16T14:03:18.735Z,1.00
2023-03-16T14:05:47.847Z,1.00
2023-03-16T14:08:23.853Z,0.67
2023-03-16T14:10:55.259Z,1.00
2023-03-16T14:13:27.773Z,1.00
2023-03-16T14:15:58.682Z,1.00
2023-03-16T14:18:41.330Z,1.00
2023-03-16T14:21:23.191Z,2.00
2023-03-16T14:23:55.313Z,0.00
2023-03-16T14:26:23.886Z,0.00
2023-03-16T14:29:15.384Z,0.50
2023-03-16T14:31:43.571Z,2.00
2023-03-16T14:34:29.379Z,1.00
2023-03-16T14:37:11.556Z,1.00
2023-03-16T14:39:43.055Z,1.50
2023-03-16T14:42:30.797Z,1.00
2023-03-16T14:45:01.137Z,1.33
2023-03-16T14:47:32.266Z,1.00
2023-03-16T14:50:07.793Z,0.25
2023-03-16T14:52:37.475Z,1.00
2023-03-16T14:55:19.873Z,0.75
2023-03-16T14:57:49.696Z,2.00
2023-03-16T15:00:20.164Z,1.00
2023-03-16T15:03:07.867Z,1.00
2023-03-16T15:05:39.259Z,1.00
2023-03-16T15:08:15.243Z,2.00
2023-03-16T15:10:45.288Z,1.00
2023-03-16T15:13:17.427Z,1.00
2023-03-16T15:15:48.846Z,1.00
2023-03-16T15:18:17.604Z,0.75
2023-03-16T15:20:46.692Z,1.00
2023-03-16T15:23:17.342Z,0.00
2023-03-16T15:25:47.132Z,1.00
2023-03-16T15:28:27.085Z,1.33
2023-03-16T15:30:57.636Z,0.00
2023-03-16T15:33:26.921Z,1.33
2023-03-16T15:36:00.158Z,1.00
2023-03-16T15:38:34.858Z,1.00
2023-03-16T15:41:03.748Z,1.00
2023-03-16T15:43:32.208Z,1.00
2023-03-16T15:46:00.583Z,0.00
2023-03-16T15:48:28.967Z,1.00
2023-03-16T15:51:02.975Z,1.00
2023-03-16T15:53:38.886Z,1.00
2023-03-16T15:56:10.895Z,1.00
2023-03-16T15:58:42.146Z,1.00
2023-03-16T16:01:22.481Z,1.00
2023-03-16T16:03:51.894Z,0.00
2023-03-16T16:06:21.005Z,0.67
2023-03-16T16:08:49.271Z,1.00
2023-03-16T16:11:22.056Z,1.00
2023-03-16T16:13:51.874Z,0.50
2023-03-16T16:16:20.639Z,0.00
2023-03-16T16:18:49.250Z,0.00
2023-03-16T16:21:19.472Z,1.00
2023-03-16T16:23:48.250Z,1.00
2023-03-16T16:26:45.525Z,1.00
2023-03-16T16:29:22.416Z,1.00
2023-03-16T16:31:54.054Z,1.00
2023-03-16T16:34:25.226Z,0.67
2023-03-16T16:36:55.618Z,1.00
2023-03-16T16:39:24.866Z,1.00
2023-03-16T16:41:57.231Z,1.00
2023-03-16T16:44:28.156Z,1.00
2023-03-16T16:46:56.922Z,1.00
2023-03-16T16:49:28.300Z,1.00
2023-03-16T16:51:57.671Z,0.00
2023-03-16T16:54:29.175Z,1.00
2023-03-16T16:56:59.254Z,0.33
2023-03-16T16:59:34.990Z,0.50
2023-03-16T17:02:29.014Z,1.00
2023-03-16T17:04:57.679Z,1.00
2023-03-16T17:07:26.065Z,1.00
2023-03-16T17:09:54.316Z,0.25
2023-03-16T17:12:23.921Z,0.50
2023-03-16T17:14:52.311Z,1.00
2023-03-16T17:17:21.810Z,0.00
2023-03-16T17:19:50.492Z,1.00
2023-03-16T17:22:28.599Z,1.00
2023-03-16T17:24:57.200Z,0.00
2023-03-16T17:27:29.271Z,0.00
2023-03-16T17:29:58.082Z,0.67
2023-03-16T17:32:26.845Z,1.00
2023-03-16T17:34:55.211Z,0.00
2023-03-16T17:37:23.611Z,0.50
2023-03-16T17:39:52.892Z,1.00
2023-03-16T17:42:23.201Z,1.00
2023-03-16T17:44:53.036Z,1.00
2023-03-16T17:47:26.662Z,1.00
2023-03-16T17:49:57.251Z,0.50
2023-03-16T17:52:29.035Z,1.00
2023-03-16T17:54:57.611Z,1.00
2023-03-16T17:57:30.349Z,1.00
2023-03-16T18:00:01.010Z,1.00
2023-03-16T18:02:35.263Z,0.25
2023-03-16T18:05:05.805Z,0.67
2023-03-16T18:07:34.262Z,0.67
2023-03-16T18:10:02.531Z,2.00
2023-03-16T18:12:31.008Z,1.75
2023-03-16T18:14:59.601Z,1.00
2023-03-16T18:17:30.322Z,1.00
2023-03-16T18:19:59.317Z,1.00
2023-03-16T18:22:28.318Z,2.00
2023-03-16T18:24:56.905Z,3.33
2023-03-16T18:27:25.915Z,2.50
2023-03-16T18:29:54.376Z,1.00
2023-03-16T18:32:25.494Z,2.00
2023-03-16T18:34:54.006Z,4.00
2023-03-16T18:37:25.351Z,4.00
2023-03-16T18:39:54.572Z,6.00
2023-03-16T18:42:26.353Z,6.67
2023-03-16T18:44:54.691Z,4.33
2023-03-16T18:47:24.939Z,4.00
2023-03-16T18:49:54.316Z,2.33
2023-03-16T18:52:24.801Z,4.25
2023-03-16T18:54:53.529Z,4.00
2023-03-16T18:57:29.081Z,4.00
2023-03-16T18:59:57.489Z,3.25
2023-03-16T19:02:29.711Z,3.00
2023-03-16T19:05:00.740Z,4.00
2023-03-16T19:07:37.648Z,3.33
2023-03-16T19:10:29.579Z,3.25
2023-03-16T19:12:58.997Z,3.00
2023-03-16T19:15:28.848Z,3.00
2023-03-16T19:17:58.344Z,3.00
2023-03-16T19:20:32.887Z,3.67
2023-03-16T19:23:06.698Z,2.00
2023-03-16T19:25:37.576Z,3.00
2023-03-16T19:28:09.083Z,2.00
2023-03-16T19:30:37.601Z,2.25
2023-03-16T19:33:26.571Z,3.00
2023-03-16T19:35:56.258Z,2.33
2023-03-16T19:38:26.085Z,2.75
2023-03-16T19:40:57.436Z,2.00
2023-03-16T19:43:26.960Z,3.33
2023-03-16T19:45:56.777Z,2.33
2023-03-16T19:48:33.022Z,2.00
2023-03-16T19:51:02.227Z,2.00
2023-03-16T19:53:30.608Z,3.00
2023-03-16T19:55:59.004Z,3.00
2023-03-16T19:58:35.596Z,0.75
2023-03-16T20:01:04.871Z,2.33
2023-03-16T20:03:35.488Z,2.00
2023-03-16T20:06:04.385Z,2.00
2023-03-16T20:08:32.663Z,2.00
2023-03-16T20:11:07.474Z,2.67
2023-03-16T20:13:36.580Z,2.33
2023-03-16T20:16:05.786Z,2.00
2023-03-16T20:18:33.955Z,1.00
2023-03-16T20:21:02.592Z,2.50
2023-03-16T20:23:31.535Z,2.33
2023-03-16T20:26:02.658Z,2.00
2023-03-16T20:28:38.628Z,2.00
2023-03-16T20:31:13.068Z,2.50
2023-03-16T20:33:41.429Z,2.00
2023-03-16T20:36:12.592Z,2.25
2023-03-16T20:38:41.265Z,2.33
2023-03-16T20:41:24.907Z,2.00
2023-03-16T20:43:54.811Z,3.00
2023-03-16T20:46:26.409Z,1.50
2023-03-16T20:48:55.764Z,2.00
2023-03-16T20:51:24.970Z,2.00
2023-03-16T20:53:53.591Z,1.50
2023-03-16T20:56:25.623Z,1.00
2023-03-16T20:58:56.428Z,2.00
2023-03-16T21:01:24.993Z,2.00
2023-03-16T21:03:55.761Z,2.00
2023-03-16T21:06:30.481Z,2.00
2023-03-16T21:09:01.235Z,1.00
2023-03-16T21:11:39.246Z,2.00
2023-03-16T21:14:15.813Z,1.33
2023-03-16T21:16:45.016Z,1.00
2023-03-16T21:19:23.004Z,1.33
2023-03-16T21:21:51.853Z,2.00
2023-03-16T21:24:20.186Z,2.00
2023-03-16T21:26:48.773Z,1.25
2023-03-16T21:29:22.091Z,2.00
2023-03-16T21:31:50.446Z,1.00
2023-03-16T21:34:31.416Z,1.33
2023-03-16T21:36:59.693Z,0.75
2023-03-16T21:39:28.496Z,1.00
2023-03-16T21:41:56.761Z,1.25
2023-03-16T21:44:25.137Z,2.00
2023-03-16T21:46:53.544Z,1.00
2023-03-16T21:49:22.105Z,1.00
2023-03-16T21:51:51.303Z,1.00
2023-03-16T21:54:19.887Z,1.67
2023-03-16T21:56:48.267Z,1.00
2023-03-16T21:59:16.691Z,1.33
2023-03-16T22:02:00.393Z,1.00
2023-03-16T22:04:30.297Z,1.00
2023-03-16T22:06:58.673Z,1.00
2023-03-16T22:09:30.480Z,0.00
2023-03-16T22:11:59.030Z,1.00
2023-03-16T22:14:27.498Z,1.00
2023-03-16T22:16:56.960Z,0.00
2023-03-16T22:19:27.620Z,1.00
2023-03-16T22:21:59.395Z,1.50
2023-03-16T22:24:30.650Z,1.00
2023-03-16T22:26:59.735Z,1.00
2023-03-16T22:29:30.373Z,1.00
2023-03-16T22:32:03.373Z,2.00
2023-03-16T22:34:43.309Z,1.00
2023-03-16T22:37:14.665Z,1.00
2023-03-16T22:39:43.074Z,1.00
2023-03-16T22:42:37.405Z,1.33
2023-03-16T22:45:14.605Z,1.67
2023-03-16T22:47:43.005Z,1.00
2023-03-16T22:50:16.900Z,1.00
2023-03-16T22:52:48.086Z,1.00
2023-03-16T22:55:25.248Z,1.00
2023-03-16T22:58:04.287Z,1.75
2023-03-16T23:00:32.857Z,1.00
2023-03-16T23:03:01.452Z,1.00
2023-03-16T23:05:30.280Z,1.50
2023-03-16T23:08:01.072Z,0.00
2023-03-16T23:10:29.845Z,2.00
2023-03-16T23:12:59.827Z,1.50
2023-03-16T23:15:30.559Z,1.75
2023-03-16T23:17:59.085Z,1.25
2023-03-16T23:20:30.443Z,1.25
2023-03-16T23:22:59.220Z,1.00
2023-03-16T23:25:27.910Z,1.00
2023-03-16T23:27:57.832Z,0.00
2023-03-16T23:30:26.198Z,1.00
2023-03-16T23:32:55.770Z,1.00
2023-03-16T23:35:25.122Z,1.00
2023-03-16T23:37:54.805Z,1.00
2023-03-16T23:40:25.051Z,1.00
2023-03-16T23:42:54.861Z,1.33
2023-03-16T23:45:38.289Z,1.50
2023-03-16T23:48:11.330Z,0.00
2023-03-16T23:50:40.177Z,0.67
2023-03-16T23:53:14.399Z,1.00
2023-03-16T23:55:43.172Z,1.00
2023-03-16T23:58:12.376Z,1.00
